Time;durP1;ratioP1;P1;durP2;ratioP2;P2;SDS_P1;SDS_P2;PMS_P1;PMS_P2;Temp;Humidity;BMP_temperature;BMP_pressure;BME280_temperature;BME280_humidity;BME280_pressure;Samples;Min_cycle;Max_cycle;Signal;HPM_P1;HPM_P2
2021/04/13 00:02:47;;;;;;;4.20;3.43;;;;;;;-0.20;78.65;100231.16;5092525;28;20043;-79
2021/04/13 00:05:25;;;;;;;6.07;3.93;;;;;;;-0.28;79.80;100235.22;5104336;28;20050;-79
2021/04/13 00:07:52;;;;;;;4.47;3.27;;;;;;;-0.34;80.23;100232.91;5097803;28;20075;-78
2021/04/13 00:10:23;;;;;;;8.13;3.60;;;;;;;-0.39;80.25;100217.13;5097668;28;20495;-80
2021/04/13 00:12:49;;;;;;;3.23;2.63;;;;;;;-0.32;81.01;100237.19;5097081;28;20104;-79
2021/04/13 00:15:18;;;;;;;3.50;2.80;;;;;;;-0.27;80.45;100236.91;5093202;28;20052;-79
2021/04/13 00:17:46;;;;;;;2.95;2.65;;;;;;;-0.38;79.16;100232.19;5106751;28;20072;-79
2021/04/13 00:20:20;;;;;;;7.63;3.43;;;;;;;-0.49;79.97;100229.31;5101542;28;20598;-79
2021/04/13 00:22:47;;;;;;;4.77;3.20;;;;;;;-0.37;79.72;100231.25;5101479;28;20145;-79
2021/04/13 00:25:24;;;;;;;4.13;2.83;;;;;;;-0.43;80.27;100234.28;5110798;28;20047;-80
2021/04/13 00:27:51;;;;;;;4.47;2.87;;;;;;;-0.47;80.00;100220.22;5098852;28;20077;-79
2021/04/13 00:30:21;;;;;;;8.10;3.60;;;;;;;-0.45;80.44;100221.00;5106635;28;20055;-80
2021/04/13 00:32:49;;;;;;;;;;;;;;;-0.56;80.97;100228.78;5101472;28;20454;-80
2021/04/13 00:35:27;;;;;;;3.27;2.60;;;;;;;-0.57;80.83;100227.06;5092923;28;19927;-79
2021/04/13 00:38:13;;;;;;;2.97;2.23;;;;;;;-0.58;80.62;100218.19;5076283;28;20109;-79
2021/04/13 00:40:42;;;;;;;3.77;3.07;;;;;;;-0.46;79.92;100226.44;5101766;28;20048;-79
2021/04/13 00:43:13;;;;;;;3.67;2.67;;;;;;;-0.50;80.50;100235.59;5109480;28;20059;-80
2021/04/13 00:45:42;;;;;;;8.07;3.23;;;;;;;-0.54;80.57;100227.75;5095192;28;20056;-80
2021/04/13 00:48:11;;;;;;;5.70;3.30;;;;;;;-0.52;80.28;100221.47;5092292;28;20662;-80
2021/04/13 00:50:43;;;;;;;5.23;3.17;;;;;;;-0.56;80.31;100223.44;5095140;28;20044;-80
2021/04/13 00:53:14;;;;;;;5.00;3.37;;;;;;;-0.66;80.89;100224.91;5097738;28;20052;-79
2021/04/13 00:55:47;;;;;;;8.63;3.30;;;;;;;-0.83;80.60;100213.34;5091479;28;20079;-80
2021/04/13 01:15:07;;;;;;;3.67;2.97;;;;;;;-1.05;80.18;100228.84;5101981;28;20039;-80
2021/04/13 01:17:35;;;;;;;9.53;3.27;;;;;;;-1.07;80.71;100239.63;5111511;28;20055;-80
2021/04/13 01:20:13;;;;;;;5.63;3.57;;;;;;;-1.15;80.65;100225.84;5103470;28;20039;-80
2021/04/13 01:22:47;;;;;;;6.60;3.40;;;;;;;-1.10;80.71;100238.00;5098380;28;20138;-80
2021/04/13 01:25:19;;;;;;;5.30;3.70;;;;;;;-1.01;80.58;100230.41;5092699;28;20076;-79
2021/04/13 01:27:49;;;;;;;4.03;3.27;;;;;;;-0.95;80.00;100225.63;5091645;28;20082;-80
2021/04/13 01:30:18;;;;;;;4.45;2.80;;;;;;;-1.00;80.27;100234.81;5098843;28;20109;-80
2021/04/13 01:32:44;;;;;;;6.78;3.40;;;;;;;-1.02;80.57;100228.69;5111137;28;20051;-80
2021/04/13 01:35:13;;;;;;;6.47;3.73;;;;;;;-1.17;80.34;100215.25;5108074;28;20039;-80
2021/04/13 01:37:56;;;;;;;5.05;3.67;;;;;;;-1.21;80.78;100229.69;5093225;28;20056;-80
2021/04/13 01:40:29;;;;;;;3.73;3.27;;;;;;;-1.29;81.04;100223.94;5097116;28;20079;-80
2021/04/13 01:42:56;;;;;;;5.93;3.43;;;;;;;-1.28;81.11;100233.66;5104579;28;20140;-80
2021/04/13 01:45:27;;;;;;;6.37;3.43;;;;;;;-1.31;81.88;100231.16;5090056;28;20484;-80
2021/04/13 01:47:56;;;;;;;7.50;3.80;;;;;;;-1.21;81.82;100229.69;5091168;28;20562;-80
2021/04/13 01:50:25;;;;;;;8.30;3.70;;;;;;;-1.14;81.55;100228.44;5098055;28;20117;-80
2021/04/13 01:53:03;;;;;;;7.45;4.15;;;;;;;-1.21;81.65;100231.53;5091515;28;20048;-80
2021/04/13 01:55:32;;;;;;;5.17;3.80;;;;;;;-1.30;81.86;100216.88;5093606;28;20155;-80
2021/04/13 01:58:09;;;;;;;6.90;4.10;;;;;;;-1.14;81.49;100235.59;5091305;28;20055;-80
2021/04/13 02:00:44;;;;;;;8.30;4.17;;;;;;;-1.12;82.14;100237.19;5097525;28;20093;-80
2021/04/13 02:03:14;;;;;;;5.63;3.47;;;;;;;-1.19;82.00;100232.28;5099730;28;20043;-80
2021/04/13 02:05:47;;;;;;;7.60;4.10;;;;;;;-1.13;82.10;100246.19;5098087;28;20085;-80
2021/04/13 02:08:20;;;;;;;5.50;4.07;;;;;;;-1.14;82.03;100238.25;5101652;28;20488;-80
2021/04/13 02:10:56;;;;;;;5.33;3.43;;;;;;;-1.11;81.21;100238.94;5087658;28;20055;-80
2021/04/13 02:13:27;;;;;;;12.77;4.17;;;;;;;-1.15;81.05;100242.72;5090307;28;20048;-80
2021/04/13 02:16:01;;;;;;;5.97;4.07;;;;;;;-1.37;81.33;100236.81;5089701;28;20131;-80
2021/04/13 02:18:34;;;;;;;5.97;3.93;;;;;;;-1.30;81.37;100259.56;5090257;28;20101;-80
2021/04/13 02:21:05;;;;;;;8.17;3.83;;;;;;;-1.27;81.26;100252.25;5089634;28;20056;-80
2021/04/13 02:23:33;;;;;;;5.67;4.03;;;;;;;-1.28;81.42;100255.00;5089865;28;20063;-80
2021/04/13 02:26:02;;;;;;;6.10;3.83;;;;;;;-1.26;81.61;100261.13;5097856;28;20064;-79
2021/04/13 02:28:29;;;;;;;4.10;3.23;;;;;;;-1.27;81.21;100256.72;5097346;28;20079;-79
2021/04/13 02:31:00;;;;;;;7.20;3.13;;;;;;;-1.44;80.86;100253.16;5090384;28;20385;-79
2021/04/13 02:33:33;;;;;;;4.77;3.60;;;;;;;-1.52;81.25;100260.72;5099026;28;20548;-79
2021/04/13 02:36:10;;;;;;;7.27;3.13;;;;;;;-1.57;81.60;100260.06;5099846;28;20091;-79
2021/04/13 02:38:38;;;;;;;6.00;3.43;;;;;;;-1.48;81.17;100261.41;5093819;28;20101;-79
2021/04/13 02:41:16;;;;;;;5.17;3.60;;;;;;;-1.50;80.95;100252.63;5102143;28;20043;-79
2021/04/13 02:43:47;;;;;;;5.07;4.10;;;;;;;-1.55;80.86;100263.53;5092759;28;20039;-79
2021/04/13 02:46:17;;;;;;;3.70;3.07;;;;;;;-1.80;81.38;100246.13;5092955;28;20159;-79
2021/04/13 02:48:51;;;;;;;5.57;3.67;;;;;;;-1.74;81.34;100262.78;5092989;28;20052;-79
2021/04/13 02:51:19;;;;;;;5.80;3.80;;;;;;;-1.71;81.91;100267.94;5102363;28;20048;-78
2021/04/13 02:53:51;;;;;;;4.93;3.93;;;;;;;-1.55;81.88;100274.22;5092018;28;20044;-79
2021/04/13 02:56:22;;;;;;;5.70;3.67;;;;;;;-1.55;81.63;100278.66;5091709;28;20077;-79
2021/04/13 02:59:17;;;;;;;5.13;3.80;;;;;;;-1.59;80.64;100255.78;5090699;28;20563;-80
2021/04/13 03:01:52;;;;;;;4.73;3.73;;;;;;;-1.61;80.38;100261.19;5096177;28;20171;-80
2021/04/13 03:04:19;;;;;;;7.43;3.93;;;;;;;-1.65;81.13;100257.81;5089550;28;20059;-80
2021/04/13 03:06:48;;;;;;;8.30;4.00;;;;;;;-1.93;80.90;100255.69;5093482;28;20404;-80
2021/04/13 03:09:18;;;;;;;5.82;3.45;;;;;;;-1.99;81.51;100248.91;5095995;28;20109;-80
2021/04/13 03:11:47;;;;;;;6.00;3.80;;;;;;;-2.02;81.49;100249.06;5090984;28;20047;-80
2021/04/13 03:14:15;;;;;;;5.70;3.78;;;;;;;-1.97;81.68;100280.81;5095941;28;20044;-80
2021/04/13 03:16:45;;;;;;;5.40;3.77;;;;;;;-1.96;81.98;100277.19;5103440;28;20393;-80
2021/04/13 03:19:15;;;;;;;9.30;4.30;;;;;;;-1.97;82.76;100276.34;5091302;28;20432;-80
2021/04/13 03:21:46;;;;;;;7.50;4.23;;;;;;;-2.10;82.95;100261.91;5090728;28;20045;-80
2021/04/13 03:24:16;;;;;;;7.17;3.60;;;;;;;-1.96;82.60;100285.19;5095381;28;20058;-80
2021/04/13 03:26:47;;;;;;;5.50;4.33;;;;;;;-1.91;82.67;100274.28;5096022;28;20076;-80
2021/04/13 03:29:18;;;;;;;6.77;4.50;;;;;;;-1.88;82.68;100276.78;5090914;28;20055;-80
2021/04/13 03:31:46;;;;;;;10.27;4.17;;;;;;;-1.83;82.77;100288.09;5091019;28;20051;-81
2021/04/13 03:34:18;;;;;;;8.63;5.13;;;;;;;-2.09;82.24;100260.97;5088777;28;20206;-81
2021/04/13 03:36:46;;;;;;;10.23;3.93;;;;;;;-1.98;82.09;100266.59;5091787;28;20048;-80
2021/04/13 03:39:17;;;;;;;7.47;4.30;;;;;;;-2.15;82.67;100256.81;5103166;28;20096;-80
2021/04/13 03:41:47;;;;;;;6.30;3.87;;;;;;;-2.16;82.45;100270.22;5098173;28;20047;-80
2021/04/13 03:44:18;;;;;;;11.80;4.28;;;;;;;-2.17;83.34;100273.78;5093349;28;20420;-80
2021/04/13 03:46:46;;;;;;;6.90;4.33;;;;;;;-2.16;83.37;100257.75;5108166;28;20055;-81
2021/04/13 03:49:24;;;;;;;8.47;4.57;;;;;;;-2.17;83.50;100257.81;5102962;28;20052;-81
2021/04/13 03:51:57;;;;;;;6.90;4.47;;;;;;;-2.16;83.24;100265.72;5100203;28;20078;-81
2021/04/13 03:54:26;;;;;;;8.70;4.43;;;;;;;-2.20;82.94;100273.94;5105849;28;20055;-78
2021/04/13 03:56:53;;;;;;;7.70;4.32;;;;;;;-2.21;83.94;100269.59;5101334;28;20048;-80
2021/04/13 03:59:22;;;;;;;6.47;4.23;;;;;;;-2.17;83.89;100287.13;5098016;28;20048;-81
2021/04/13 04:01:50;;;;;;;5.93;3.67;;;;;;;-2.20;83.87;100282.81;5106351;28;20044;-81
2021/04/13 04:04:30;;;;;;;6.37;4.23;;;;;;;-2.17;84.36;100284.47;5094999;28;20500;-80
2021/04/13 04:06:59;;;;;;;11.13;4.40;;;;;;;-2.03;83.86;100284.66;5109991;28;20075;-80
2021/04/13 04:09:36;;;;;;;7.77;5.00;;;;;;;-2.00;83.15;100291.63;5104546;28;20043;-80
2021/04/13 04:12:19;;;;;;;8.03;4.20;;;;;;;-2.14;82.62;100282.53;5095198;28;20145;-78
2021/04/13 04:14:57;;;;;;;6.60;3.97;;;;;;;-2.40;82.77;100274.94;5097553;28;20043;-80
2021/04/13 04:17:23;;;;;;;7.93;3.80;;;;;;;-2.34;82.81;100279.97;5100279;28;20109;-81
2021/04/13 04:19:55;;;;;;;6.27;4.20;;;;;;;-2.32;82.64;100286.97;5103248;28;20043;-81
2021/04/13 04:22:24;;;;;;;5.73;3.80;;;;;;;-2.25;83.16;100305.31;5102722;28;20093;-81
2021/04/13 04:24:53;;;;;;;6.73;4.40;;;;;;;-2.25;82.78;100291.97;5100600;28;20515;-81
2021/04/13 04:27:34;;;;;;;5.60;3.63;;;;;;;-2.25;82.41;100300.81;5098099;28;20048;-81
2021/04/13 04:30:26;;;;;;;5.63;3.60;;;;;;;-2.31;82.27;100312.63;5093488;28;20044;-81
2021/04/13 04:32:54;;;;;;;6.80;4.07;;;;;;;-2.41;83.12;100291.84;5104465;28;20048;-81
2021/04/13 04:35:39;;;;;;;10.43;5.03;;;;;;;-2.36;84.09;100313.81;5103036;28;20044;-81
2021/04/13 04:38:25;;;;;;;7.23;4.33;;;;;;;-2.27;84.20;100317.81;5093695;28;20050;-81
2021/04/13 04:40:59;;;;;;;8.93;4.73;;;;;;;-2.28;83.72;100318.78;5094769;28;20043;-81
2021/04/13 04:43:53;;;;;;;8.50;4.37;;;;;;;-2.40;83.24;100305.09;5098718;28;20558;-81
2021/04/13 04:46:40;;;;;;;5.93;3.80;;;;;;;-2.26;82.58;100316.88;5101580;28;20051;-81
2021/04/13 04:49:09;;;;;;;7.03;4.17;;;;;;;-2.29;82.26;100309.91;5106980;28;20090;-80
2021/04/13 04:51:37;;;;;;;7.88;4.40;;;;;;;-2.34;82.26;100312.78;5092171;28;20059;-81
2021/04/13 04:54:04;;;;;;;8.73;4.60;;;;;;;-2.47;82.69;100316.13;5091526;28;20055;-81
2021/04/13 04:56:31;;;;;;;10.57;3.77;;;;;;;-2.52;83.20;100305.69;5098841;28;20043;-81
2021/04/13 04:58:57;;;;;;;14.60;4.80;;;;;;;-2.39;82.90;100324.63;5092126;28;20140;-81
2021/04/13 05:01:23;;;;;;;6.73;4.87;;;;;;;-2.34;82.59;100325.25;5097596;28;20036;-81
2021/04/13 05:03:50;;;;;;;7.13;4.13;;;;;;;-2.27;82.37;100331.13;5099567;28;20481;-81
2021/04/13 05:06:17;;;;;;;12.70;4.47;;;;;;;-2.31;82.06;100331.28;5107576;28;20047;-81
2021/04/13 05:08:59;;;;;;;7.77;4.50;;;;;;;-2.37;81.88;100328.91;5104774;28;20453;-81
2021/04/13 05:11:29;;;;;;;13.07;4.67;;;;;;;-2.46;82.91;100324.03;5092730;28;20044;-80
2021/04/13 05:13:56;;;;;;;8.25;4.25;;;;;;;-2.50;82.22;100311.78;5102875;28;20075;-81
2021/04/13 05:16:25;;;;;;;7.87;4.50;;;;;;;-2.34;81.98;100338.56;5104432;28;20043;-81
2021/04/13 05:18:57;;;;;;;8.75;4.63;;;;;;;-2.35;81.79;100347.50;5110729;28;20047;-81
2021/04/13 05:21:23;;;;;;;6.37;4.30;;;;;;;-2.30;82.06;100340.16;5106783;28;20040;-81
2021/04/13 05:23:52;;;;;;;9.27;4.77;;;;;;;-2.22;81.99;100347.78;5091189;28;20490;-81
2021/04/13 05:26:21;;;;;;;9.45;4.65;;;;;;;-2.22;81.69;100335.31;5095968;28;20439;-81
2021/04/13 05:28:47;;;;;;;10.50;4.70;;;;;;;-2.23;82.64;100333.59;5092272;28;20051;-81
2021/04/13 05:31:13;;;;;;;11.73;5.03;;;;;;;-2.02;82.63;100341.47;5093377;28;20044;-81
2021/04/13 05:33:39;;;;;;;8.83;4.50;;;;;;;-1.89;82.61;100334.59;5101985;28;20055;-81
2021/04/13 05:36:09;;;;;;;13.63;4.13;;;;;;;-1.95;82.97;100329.56;5091890;28;20040;-81
2021/04/13 05:38:37;;;;;;;;;;;;;;;-1.58;82.68;100345.50;5094250;28;20788;-81
2021/04/13 05:41:07;;;;;;;7.63;4.03;;;;;;;-1.43;82.69;100352.69;5091063;28;20364;-82
2021/04/13 05:43:37;;;;;;;7.78;4.97;;;;;;;-0.95;81.10;100355.53;5095032;28;20415;-82
2021/04/13 05:46:04;;;;;;;7.90;4.47;;;;;;;-0.95;80.18;100352.88;5093386;28;20056;-81
2021/04/13 05:48:34;;;;;;;5.47;4.03;;;;;;;-0.79;80.63;100352.91;5095395;28;20348;-81
2021/04/13 05:51:00;;;;;;;6.82;4.63;;;;;;;-0.52;79.71;100358.56;5105706;28;20044;-81
2021/04/13 05:53:26;;;;;;;7.47;4.83;;;;;;;-0.42;79.45;100364.22;5102686;28;20050;-81
2021/04/13 05:55:55;;;;;;;8.47;5.20;;;;;;;-0.46;79.62;100352.03;5100087;28;20059;-81
2021/04/13 05:58:24;;;;;;;7.70;5.33;;;;;;;-0.15;78.08;100364.53;5102526;28;20044;-82
2021/04/13 06:00:57;;;;;;;14.45;5.25;;;;;;;-0.02;77.48;100376.22;5093717;28;20040;-81
2021/04/13 06:03:26;;;;;;;13.17;5.23;;;;;;;-0.04;77.11;100369.25;5090517;28;20074;-81
2021/04/13 06:05:56;;;;;;;7.00;4.67;;;;;;;0.33;76.00;100356.41;5101048;28;20054;-81
2021/04/13 06:08:26;;;;;;;12.90;5.40;;;;;;;0.59;74.05;100362.03;5102671;28;20051;-81
2021/04/13 06:10:53;;;;;;;8.93;5.45;;;;;;;0.68;74.49;100375.72;5099257;28;20044;-81
2021/04/13 06:13:24;;;;;;;7.03;4.40;;;;;;;1.05;73.43;100384.22;5098363;28;20043;-80
2021/04/13 06:15:52;;;;;;;10.83;5.23;;;;;;;1.02;72.92;100387.09;5102366;28;20052;-79
2021/04/13 06:18:18;;;;;;;7.43;5.17;;;;;;;0.83;73.42;100373.94;5100306;28;20044;-79
2021/04/13 06:20:45;;;;;;;8.87;5.80;;;;;;;0.59;73.33;100381.63;5090629;28;20047;-77
2021/04/13 06:23:11;;;;;;;11.70;6.60;;;;;;;1.07;72.73;100386.81;5091195;28;20051;-77
2021/04/13 06:25:38;;;;;;;8.10;5.53;;;;;;;0.92;72.47;100387.72;5094699;28;20044;-77
2021/04/13 06:28:04;;;;;;;7.17;4.83;;;;;;;1.13;72.65;100383.75;5103226;28;20043;-78
2021/04/13 06:30:31;;;;;;;12.37;5.53;;;;;;;1.91;71.24;100379.72;5090859;28;20051;-78
2021/04/13 06:33:01;;;;;;;9.30;6.00;;;;;;;1.97;69.46;100376.66;5094035;28;20039;-79
2021/04/13 06:35:28;;;;;;;10.35;6.40;;;;;;;2.23;69.13;100383.00;5089540;28;20044;-81
2021/04/13 06:37:58;;;;;;;25.23;7.73;;;;;;;2.87;66.76;100373.38;5090359;28;20060;-81
2021/04/13 06:40:37;;;;;;;11.52;5.72;;;;;;;3.35;64.77;100371.75;5098633;28;20048;-81
2021/04/13 06:43:17;;;;;;;10.82;6.55;;;;;;;3.45;64.77;100371.97;5090245;28;20047;-81
2021/04/13 06:45:56;;;;;;;10.65;6.30;;;;;;;4.08;63.11;100374.63;5091231;28;20497;-81
2021/04/13 06:48:43;;;;;;;9.68;5.57;;;;;;;3.82;64.18;100380.06;5090374;28;20044;-81
2021/04/13 06:51:20;;;;;;;7.90;5.47;;;;;;;4.16;62.81;100374.91;5096942;28;20404;-79
2021/04/13 07:07:55;;;;;;;12.90;7.05;;;;;;;3.39;67.14;100388.56;5110578;28;20042;-77
2021/04/13 07:10:26;;;;;;;9.18;5.90;;;;;;;3.53;65.84;100390.25;5110937;28;20043;-78
2021/04/13 07:13:05;;;;;;;14.57;7.40;;;;;;;3.92;65.42;100395.56;5105260;28;20083;-77
2021/04/13 07:15:35;;;;;;;9.02;6.50;;;;;;;3.85;66.10;100384.38;5095905;28;20047;-78
2021/04/13 07:18:07;;;;;;;13.55;7.28;;;;;;;3.65;66.24;100378.59;5097230;28;20044;-79
2021/04/13 07:20:37;;;;;;;10.50;5.35;;;;;;;3.66;66.78;100379.50;5095965;28;20040;-79
2021/04/13 07:23:12;;;;;;;11.80;6.70;;;;;;;3.97;66.30;100374.53;5097370;28;20051;-79
2021/04/13 07:25:45;;;;;;;11.30;7.47;;;;;;;4.12;64.88;100388.72;5101420;28;20044;-79
2021/04/13 07:28:21;;;;;;;10.45;6.85;;;;;;;3.72;65.15;100374.50;5094935;28;20403;-80
2021/04/13 07:30:50;;;;;;;11.57;7.18;;;;;;;3.77;66.75;100386.78;5094835;28;20048;-79
2021/04/13 07:33:22;;;;;;;14.90;7.20;;;;;;;3.81;66.20;100397.19;5094786;28;20299;-80
2021/04/13 07:35:50;;;;;;;12.18;7.78;;;;;;;4.08;65.51;100391.63;5095784;28;20055;-80
2021/04/13 07:38:21;;;;;;;14.05;7.95;;;;;;;4.21;63.54;100396.09;5107195;28;20396;-80
2021/04/13 07:40:51;;;;;;;12.15;7.95;;;;;;;4.17;63.25;100383.81;5102522;28;20062;-79
2021/04/13 07:43:21;;;;;;;9.77;6.80;;;;;;;4.08;64.45;100393.47;5100929;28;20040;-80
2021/04/13 07:45:57;;;;;;;10.45;6.70;;;;;;;4.10;63.76;100382.59;5096154;28;20066;-79
2021/04/13 07:48:33;;;;;;;8.15;6.57;;;;;;;4.34;63.08;100377.22;5096959;28;20564;-80
2021/04/13 07:51:15;;;;;;;16.67;7.30;;;;;;;4.27;65.06;100381.31;5098811;28;20051;-80
2021/04/13 07:57:08;;;;;;;11.25;7.45;;;;;;;4.04;64.66;100382.06;5100006;28;20132;-80
2021/04/13 08:00:18;;;;;;;15.45;7.88;;;;;;;4.47;63.26;100394.16;5096442;28;20067;-80
2021/04/13 08:03:03;;;;;;;11.05;8.13;;;;;;;4.73;62.79;100377.84;5090481;28;20051;-80
2021/04/13 08:05:53;;;;;;;13.68;8.63;;;;;;;5.24;60.90;100374.78;5094670;28;20450;-80
2021/04/13 08:08:28;;;;;;;10.30;7.30;;;;;;;5.34;60.22;100384.81;5091778;28;20044;-80
2021/04/13 08:11:12;;;;;;;9.45;6.88;;;;;;;5.09;60.66;100390.31;5099511;28;20052;-81
2021/04/13 08:13:41;;;;;;;9.48;5.28;;;;;;;4.95;60.91;100391.38;5110520;28;20502;-81
2021/04/13 08:16:26;;;;;;;12.73;7.65;;;;;;;4.85;61.42;100387.69;5094791;28;20090;-81
2021/04/13 08:18:54;;;;;;;7.28;4.80;;;;;;;5.16;61.35;100390.69;5093221;28;20081;-81
2021/04/13 08:21:24;;;;;;;9.13;6.35;;;;;;;4.96;58.42;100384.16;5095660;28;20079;-80
2021/04/13 08:23:52;;;;;;;13.02;6.38;;;;;;;5.15;56.62;100378.19;5092841;28;20040;-80
2021/04/13 08:26:44;;;;;;;10.25;7.00;;;;;;;5.58;57.61;100373.91;5099684;28;20504;-81
2021/04/13 08:29:40;;;;;;;10.18;7.60;;;;;;;5.43;56.97;100384.09;5093389;28;20143;-80
2021/04/13 08:35:14;;;;;;;8.85;5.10;;;;;;;5.45;55.77;100382.13;5092802;28;20097;-79
2021/04/13 08:37:53;;;;;;;8.25;4.82;;;;;;;5.68;53.69;100361.41;5111664;28;20138;-80
2021/04/13 08:40:27;;;;;;;9.55;5.63;;;;;;;5.67;53.54;100375.88;5092832;28;20052;-80
2021/04/13 08:43:01;;;;;;;7.25;5.35;;;;;;;5.46;52.28;100389.25;5100280;28;20509;-80
2021/04/13 08:45:35;;;;;;;7.38;4.55;;;;;;;5.26;52.91;100361.16;5091825;28;20056;-81
2021/04/13 08:48:13;;;;;;;7.63;4.72;;;;;;;5.85;53.67;100365.44;5092365;28;20048;-81
2021/04/13 08:50:45;;;;;;;7.07;4.43;;;;;;;5.98;53.57;100385.06;5092599;28;20059;-82
2021/04/13 08:53:30;;;;;;;7.70;5.63;;;;;;;5.83;53.61;100364.72;5092070;28;20051;-81
2021/04/13 08:56:05;;;;;;;6.03;4.15;;;;;;;5.58;52.13;100390.09;5097307;28;20051;-82
2021/04/13 08:58:42;;;;;;;5.75;4.47;;;;;;;5.78;50.57;100388.50;5093295;28;20052;-81
2021/04/13 09:01:31;;;;;;;7.18;4.28;;;;;;;5.83;52.13;100364.72;5107080;28;20502;-81
2021/04/13 09:03:58;;;;;;;8.40;5.13;;;;;;;5.82;51.18;100389.97;5100006;28;20101;-81
2021/04/13 09:06:37;;;;;;;5.93;3.45;;;;;;;5.59;51.67;100381.88;5102830;28;20035;-82
2021/04/13 09:09:12;;;;;;;4.80;3.60;;;;;;;5.55;50.62;100375.00;5098009;28;20050;-82
2021/04/13 09:11:56;;;;;;;5.85;4.10;;;;;;;6.00;52.79;100366.91;5092382;28;20047;-81
2021/04/13 09:14:41;;;;;;;8.48;3.88;;;;;;;6.26;49.83;100385.50;5099026;28;20055;-82
2021/04/13 09:17:15;;;;;;;6.78;4.15;;;;;;;5.99;49.06;100370.59;5092004;28;20044;-81
2021/04/13 09:19:52;;;;;;;5.07;3.92;;;;;;;6.12;48.94;100367.72;5092063;28;20059;-81
2021/04/13 09:22:23;;;;;;;7.80;4.60;;;;;;;6.19;49.79;100376.19;5091691;28;20040;-82
2021/04/13 09:25:07;;;;;;;7.20;4.57;;;;;;;6.25;47.97;100374.81;5090979;28;20059;-82
2021/04/13 09:27:41;;;;;;;10.35;4.70;;;;;;;5.80;50.05;100382.00;5103229;28;20040;-82
2021/04/13 09:30:38;;;;;;;9.20;4.28;;;;;;;5.60;49.32;100388.13;5095575;28;20123;-81
2021/04/13 09:33:12;;;;;;;5.00;3.95;;;;;;;5.44;50.27;100378.56;5090694;28;20074;-81
2021/04/13 09:35:59;;;;;;;4.97;3.40;;;;;;;5.63;49.47;100387.88;5097736;28;20044;-81
2021/04/13 09:38:58;;;;;;;4.45;3.78;;;;;;;5.72;48.18;100379.06;5101561;28;20046;-81
2021/04/13 09:41:41;;;;;;;6.30;4.20;;;;;;;6.16;47.65;100374.59;5067437;28;20039;-82
2021/04/13 09:44:22;;;;;;;5.15;3.65;;;;;;;6.25;45.65;100367.59;5109176;28;20039;-82
2021/04/13 09:47:00;;;;;;;4.90;3.47;;;;;;;6.21;45.43;100376.91;5102533;28;20549;-82
2021/04/13 09:49:58;;;;;;;5.88;3.60;;;;;;;5.83;45.50;100360.16;5107963;28;20059;-82
2021/04/13 09:52:59;;;;;;;8.45;3.97;;;;;;;6.32;45.60;100376.03;5091286;28;20056;-82
2021/04/13 09:55:41;;;;;;;5.20;3.70;;;;;;;6.44;45.61;100376.84;5097062;28;20047;-82
2021/04/13 09:59:04;;;;;;;5.72;4.20;;;;;;;6.53;46.53;100367.97;5090859;28;20173;-82
2021/04/13 10:02:00;;;;;;;7.60;4.10;;;;;;;6.64;45.87;100365.22;5100668;28;20036;-81
2021/04/13 10:04:58;;;;;;;6.85;4.53;;;;;;;6.30;46.52;100334.78;5088621;28;20043;-82
2021/04/13 10:07:43;;;;;;;7.50;4.93;;;;;;;6.24;46.15;100348.81;5090416;28;20047;-81
2021/04/13 10:10:21;;;;;;;7.95;3.97;;;;;;;6.24;45.31;100362.31;5101866;28;20377;-82
2021/04/13 10:13:20;;;;;;;7.68;4.00;;;;;;;5.96;44.67;100353.75;5095858;28;20043;-81
2021/04/13 10:16:08;;;;;;;6.63;4.23;;;;;;;5.81;45.10;100361.25;5096929;28;20089;-81
2021/04/13 10:19:04;;;;;;;8.18;4.78;;;;;;;6.22;45.92;100359.75;5091160;28;20105;-81
2021/04/13 10:22:14;;;;;;;6.38;3.88;;;;;;;6.43;43.75;100350.81;5092635;28;20044;-82
2021/04/13 10:25:22;;;;;;;5.82;4.15;;;;;;;6.73;43.49;100355.47;5098191;28;20059;-82
2021/04/13 10:28:30;;;;;;;7.50;4.60;;;;;;;6.94;42.20;100349.19;5094725;28;20050;-82
2021/04/13 10:31:44;;;;;;;6.22;4.15;;;;;;;6.79;44.96;100338.75;5090550;28;20039;-83
2021/04/13 10:34:59;;;;;;;7.55;3.55;;;;;;;7.39;43.75;100338.94;5075341;28;20109;-81
2021/04/13 10:38:04;;;;;;;6.45;3.35;;;;;;;7.19;43.79;100316.31;5096535;28;20044;-81
2021/04/13 10:40:54;;;;;;;5.30;4.15;;;;;;;7.34;43.79;100343.88;5093366;28;20048;-81
2021/04/13 10:44:05;;;;;;;6.40;4.50;;;;;;;7.22;42.70;100334.16;5096108;28;20109;-81
2021/04/13 10:46:51;;;;;;;5.43;4.20;;;;;;;7.12;45.90;100330.53;4961711;28;20512;-82
2021/04/13 10:50:16;;;;;;;7.00;4.80;;;;;;;7.13;42.77;100324.13;5096557;28;20044;-82
2021/04/13 10:53:27;;;;;;;4.45;3.53;;;;;;;7.46;43.21;100325.72;5039192;28;20071;-82
2021/04/13 10:56:31;;;;;;;5.38;3.35;;;;;;;7.25;44.72;100323.91;5104504;28;20047;-82
2021/04/13 10:59:46;;;;;;;5.88;4.00;;;;;;;7.46;44.02;100314.03;5067750;28;20051;-83
2021/04/13 11:02:54;;;;;;;6.72;3.80;;;;;;;7.76;44.94;100319.38;5105331;28;20054;-82
2021/04/13 11:05:37;;;;;;;6.20;3.63;;;;;;;7.89;43.98;100316.44;5025026;28;20507;-82
2021/04/13 11:08:43;;;;;;;6.22;3.47;;;;;;;7.63;43.00;100318.78;5101947;28;20044;-82
2021/04/13 11:11:54;;;;;;;5.13;3.67;;;;;;;6.95;45.59;100332.00;5094831;28;20048;-82
2021/04/13 11:14:54;;;;;;;7.38;3.28;;;;;;;6.62;53.47;100340.16;5058726;28;20058;-81
2021/04/13 11:18:00;;;;;;;5.20;3.10;;;;;;;6.02;54.77;100343.34;5091902;28;20104;-81
2021/04/13 11:21:12;;;;;;;5.35;3.53;;;;;;;5.77;55.37;100336.38;5096156;28;20549;-82
2021/04/13 11:24:04;;;;;;;4.10;2.80;;;;;;;5.60;55.76;100336.88;5030562;28;20066;-82
2021/04/13 11:27:16;;;;;;;8.10;2.83;;;;;;;5.92;51.98;100323.47;5037690;28;20157;-82
2021/04/13 11:30:24;;;;;;;4.50;2.47;;;;;;;6.03;50.73;100320.75;5092380;28;20278;-82
2021/04/13 11:33:27;;;;;;;3.47;2.88;;;;;;;6.13;47.78;100291.16;5068235;28;20044;-82
2021/04/13 11:53:00;;;;;;;4.03;2.50;;;;;;;7.88;41.96;100268.69;5077393;28;20082;-83
2021/04/13 11:55:55;;;;;;;3.20;2.57;;;;;;;8.06;39.99;100289.69;5080617;28;20043;-82
2021/04/13 11:58:25;;;;;;;3.70;2.70;;;;;;;8.15;40.11;100296.94;5073352;28;20052;-82
2021/04/13 12:00:53;;;;;;;4.43;2.92;;;;;;;8.18;38.17;100298.53;5078856;28;20095;-82
2021/04/13 12:03:33;;;;;;;2.08;1.83;;;;;;;8.23;39.40;100270.00;5073872;28;20098;-82
2021/04/13 12:06:35;;;;;;;5.00;2.25;;;;;;;8.14;36.10;100262.72;5084971;28;20044;-83
2021/04/13 12:09:03;;;;;;;5.03;2.20;;;;;;;8.76;34.98;100287.69;5071835;28;20048;-82
2021/04/13 12:11:47;;;;;;;2.78;2.00;;;;;;;8.61;34.12;100276.44;5071775;28;20041;-83
2021/04/13 12:14:35;;;;;;;5.20;2.10;;;;;;;9.08;32.46;100283.75;5070342;28;20061;-83
2021/04/13 12:17:10;;;;;;;3.40;2.60;;;;;;;9.31;34.44;100286.09;5078701;28;20048;-81
2021/04/13 12:20:12;;;;;;;2.67;2.20;;;;;;;9.19;36.51;100271.84;5072272;28;20053;-81
2021/04/13 12:25:37;;;;;;;2.53;1.80;;;;;;;7.88;39.28;100293.06;5079521;28;20052;-82
2021/04/13 12:28:07;;;;;;;2.85;1.52;;;;;;;7.16;37.21;100310.34;5092496;28;20044;-81
2021/04/13 12:31:11;;;;;;;3.10;1.77;;;;;;;6.97;38.07;100297.56;5092482;28;20072;-81
2021/04/13 12:33:55;;;;;;;5.07;1.70;;;;;;;7.05;38.97;100295.06;5094531;28;20052;-81
2021/04/13 12:36:41;;;;;;;5.30;1.95;;;;;;;7.06;35.69;100297.63;5090174;28;20102;-81
2021/04/13 12:39:08;;;;;;;8.68;1.88;;;;;;;7.09;35.48;100291.09;5092648;28;20048;-82
2021/04/13 12:41:55;;;;;;;3.40;1.65;;;;;;;7.37;35.07;100292.22;5092083;28;20070;-82
2021/04/13 12:44:25;;;;;;;2.58;1.42;;;;;;;7.90;35.63;100287.50;5091738;28;20412;-82
2021/04/13 12:46:52;;;;;;;;;;;;;;;8.46;35.68;100292.28;5093057;28;20142;-82
2021/04/13 12:49:25;;;;;;;3.28;2.17;;;;;;;8.71;33.88;100265.56;5095873;28;20190;-82
2021/04/13 12:51:54;;;;;;;3.13;2.67;;;;;;;8.82;33.97;100267.25;5092443;28;20047;-81
2021/04/13 12:54:30;;;;;;;5.15;2.45;;;;;;;9.34;34.21;100258.66;5094792;28;20066;-82
2021/04/13 12:57:04;;;;;;;3.65;2.38;;;;;;;9.44;33.45;100264.00;5091822;28;20051;-82
2021/04/13 12:59:36;;;;;;;4.45;2.30;;;;;;;9.57;33.69;100246.38;5097219;28;20048;-82
2021/04/13 13:02:04;;;;;;;4.90;2.85;;;;;;;10.21;39.01;100254.50;5095113;28;20134;-83
2021/04/13 13:04:36;;;;;;;2.92;2.20;;;;;;;9.99;34.32;100253.09;5100942;28;20054;-82
2021/04/13 13:07:05;;;;;;;5.20;2.78;;;;;;;10.39;32.53;100254.50;5097395;28;20040;-82
2021/04/13 13:09:34;;;;;;;4.28;3.13;;;;;;;9.89;34.53;100255.00;5096042;28;20044;-81
2021/04/13 13:12:10;;;;;;;6.47;2.88;;;;;;;9.14;35.83;100263.31;5095284;28;20434;-82
2021/04/13 13:14:41;;;;;;;2.38;1.65;;;;;;;8.91;37.88;100262.78;5098510;28;20052;-81